createdAt,value
2022-12-05T00:01:15.433Z,2.97
2022-12-05T00:03:43.449Z,3.97
2022-12-05T00:06:11.365Z,4.72
2022-12-05T00:08:39.190Z,1.95
2022-12-05T00:11:12.481Z,4.45
2022-12-05T00:13:41.155Z,1.63
2022-12-05T00:16:10.130Z,2.65
2022-12-05T00:18:39.603Z,4.45
2022-12-05T00:21:08.185Z,4.15
2022-12-05T00:23:35.997Z,2.45
2022-12-05T00:26:04.475Z,1.70
2022-12-05T00:28:32.646Z,2.88
2022-12-05T00:31:03.127Z,3.70
2022-12-05T00:33:31.143Z,3.35
2022-12-05T00:36:04.289Z,2.63
2022-12-05T00:38:32.205Z,4.05
2022-12-05T00:41:03.389Z,2.63
2022-12-05T00:43:31.301Z,2.75
2022-12-05T00:46:02.145Z,3.40
2022-12-05T00:48:30.118Z,1.77
2022-12-05T00:51:06.121Z,3.75
2022-12-05T00:53:34.264Z,3.50
2022-12-05T00:56:03.138Z,2.83
2022-12-05T00:58:31.404Z,2.40
2022-12-05T01:00:59.336Z,4.28
2022-12-05T01:03:27.286Z,3.38
2022-12-05T01:05:55.250Z,3.10
2022-12-05T01:08:25.110Z,3.15
2022-12-05T01:10:56.724Z,3.15
2022-12-05T01:13:24.841Z,3.42
2022-12-05T01:15:52.659Z,4.03
2022-12-05T01:18:21.027Z,2.58
2022-12-05T01:20:49.399Z,1.48
2022-12-05T01:23:17.766Z,2.50
2022-12-05T01:25:48.365Z,4.03
2022-12-05T01:28:17.254Z,3.10
2022-12-05T01:30:46.508Z,1.83
2022-12-05T01:33:14.475Z,2.10
2022-12-05T01:35:42.732Z,2.30
2022-12-05T01:38:11.840Z,2.20
2022-12-05T01:40:39.807Z,1.75
2022-12-05T01:43:11.926Z,2.28
2022-12-05T01:45:41.052Z,2.85
2022-12-05T01:48:11.596Z,2.30
2022-12-05T01:50:39.822Z,3.42
2022-12-05T01:53:07.899Z,1.92
2022-12-05T01:55:37.034Z,2.50
2022-12-05T01:58:06.439Z,2.65
2022-12-05T02:00:35.686Z,2.33
2022-12-05T02:03:05.595Z,5.18
2022-12-05T02:05:34.486Z,3.42
2022-12-05T02:08:03.954Z,1.75
2022-12-05T02:10:34.823Z,2.28
2022-12-05T02:13:08.341Z,3.20
2022-12-05T02:15:43.007Z,3.97
2022-12-05T02:18:17.314Z,2.85
2022-12-05T02:20:48.404Z,2.90
2022-12-05T02:23:34.238Z,2.65
2022-12-05T02:26:18.284Z,2.78
2022-12-05T02:28:53.984Z,3.17
2022-12-05T02:31:28.066Z,3.08
2022-12-05T02:34:01.542Z,3.55
2022-12-05T02:36:33.139Z,3.33
2022-12-05T02:39:03.871Z,5.05
2022-12-05T02:41:34.401Z,3.10
2022-12-05T02:44:04.885Z,3.38
2022-12-05T02:46:35.660Z,4.80
2022-12-05T02:49:06.306Z,2.95
2022-12-05T02:51:36.045Z,2.17
2022-12-05T02:54:06.413Z,1.63
2022-12-05T02:56:35.367Z,4.47
2022-12-05T02:59:03.333Z,3.08
2022-12-05T03:01:32.754Z,3.15
2022-12-05T03:04:03.860Z,4.22
2022-12-05T03:06:33.482Z,3.25
2022-12-05T03:09:02.734Z,14.68
2022-12-05T03:11:32.642Z,2.97
2022-12-05T03:14:02.557Z,2.10
2022-12-05T03:16:32.631Z,2.95
2022-12-05T03:19:02.589Z,2.03
2022-12-05T03:21:35.985Z,2.00
2022-12-05T03:24:05.589Z,2.15
2022-12-05T03:26:47.583Z,2.67
2022-12-05T03:29:22.420Z,2.30
2022-12-05T03:31:54.833Z,3.65
2022-12-05T03:34:26.540Z,2.00
2022-12-05T03:36:55.889Z,2.15
2022-12-05T03:39:24.911Z,1.88
2022-12-05T03:41:57.149Z,2.45
2022-12-05T03:44:26.281Z,2.50
2022-12-05T03:46:56.416Z,1.73
2022-12-05T03:49:32.082Z,3.78
2022-12-05T03:52:06.983Z,2.97
2022-12-05T03:54:36.492Z,2.40
2022-12-05T03:57:06.814Z,1.77
2022-12-05T03:59:37.294Z,2.65
2022-12-05T04:02:06.662Z,3.53
2022-12-05T04:04:37.005Z,2.05
2022-12-05T04:07:08.414Z,2.60
2022-12-05T04:09:38.685Z,3.22
2022-12-05T04:12:09.365Z,3.38
2022-12-05T04:14:39.901Z,1.70
2022-12-05T04:17:09.396Z,3.58
2022-12-05T04:19:58.432Z,3.08
2022-12-05T04:22:28.270Z,2.03
2022-12-05T04:25:14.670Z,2.92
2022-12-05T04:27:47.551Z,2.33
2022-12-05T04:30:17.113Z,2.53
2022-12-05T04:32:47.071Z,2.58
2022-12-05T04:35:16.420Z,3.47
2022-12-05T04:37:47.206Z,2.33
2022-12-05T04:40:19.114Z,1.42
2022-12-05T04:42:48.569Z,2.15
2022-12-05T04:45:17.970Z,2.50
2022-12-05T04:47:49.678Z,3.10
2022-12-05T04:50:18.125Z,2.80
2022-12-05T04:52:48.785Z,1.88
2022-12-05T04:55:17.994Z,2.53
2022-12-05T04:57:51.167Z,3.78
2022-12-05T05:00:19.332Z,2.20
2022-12-05T05:02:49.204Z,2.63
2022-12-05T05:05:19.214Z,2.33
2022-12-05T05:07:49.299Z,2.40
2022-12-05T05:10:19.916Z,3.83
2022-12-05T05:12:47.887Z,2.72
2022-12-05T05:15:15.700Z,2.35
2022-12-05T05:17:43.615Z,4.55
2022-12-05T05:20:27.336Z,1.88
2022-12-05T05:22:57.562Z,3.13
2022-12-05T05:25:25.633Z,2.15
2022-12-05T05:27:54.788Z,3.47
2022-12-05T05:30:23.528Z,2.20
2022-12-05T05:32:51.730Z,2.10
2022-12-05T05:35:20.292Z,1.40
2022-12-05T05:37:48.549Z,3.10
2022-12-05T05:40:17.850Z,2.47
2022-12-05T05:42:46.435Z,3.50
2022-12-05T05:45:14.486Z,2.47
2022-12-05T05:47:42.777Z,3.85
2022-12-05T05:50:15.008Z,1.73
2022-12-05T05:52:45.673Z,3.40
2022-12-05T05:55:13.489Z,1.75
2022-12-05T05:57:42.675Z,2.83
2022-12-05T06:00:11.421Z,3.00
2022-12-05T06:02:41.600Z,3.45
2022-12-05T06:05:09.918Z,2.60
2022-12-05T06:07:37.781Z,2.05
2022-12-05T06:10:08.975Z,2.58
2022-12-05T06:12:36.946Z,4.38
2022-12-05T06:15:07.007Z,3.38
2022-12-05T06:17:34.955Z,2.65
2022-12-05T06:20:02.834Z,1.95
2022-12-05T06:22:30.798Z,3.63
2022-12-05T06:24:58.982Z,3.00
2022-12-05T06:27:26.947Z,4.35
2022-12-05T06:29:54.894Z,2.85
2022-12-05T06:32:24.311Z,2.83
2022-12-05T06:34:52.171Z,10.15
2022-12-05T06:37:20.156Z,11.75
2022-12-05T06:39:48.119Z,10.63
2022-12-05T06:42:15.981Z,10.82
2022-12-05T06:44:43.900Z,10.68
2022-12-05T06:47:11.712Z,10.95
2022-12-05T06:49:41.106Z,11.35
2022-12-05T06:52:09.034Z,11.05
2022-12-05T06:54:37.307Z,10.95
2022-12-05T06:57:05.365Z,11.20
2022-12-05T06:59:33.267Z,10.88
2022-12-05T07:02:00.723Z,11.98
2022-12-05T07:04:28.665Z,11.43
2022-12-05T07:06:58.570Z,10.95
2022-12-05T07:09:45.889Z,11.80
2022-12-05T07:12:15.080Z,11.77
2022-12-05T07:14:48.197Z,11.38
2022-12-05T07:17:17.098Z,11.23
2022-12-05T07:19:45.040Z,11.18
2022-12-05T07:22:16.104Z,10.65
2022-12-05T07:24:44.607Z,11.30
2022-12-05T07:27:12.423Z,10.93
2022-12-05T07:29:40.340Z,11.10
2022-12-05T07:32:08.305Z,10.65
2022-12-05T07:34:36.123Z,11.20
2022-12-05T07:37:03.873Z,11.73
2022-12-05T07:39:33.081Z,10.80
2022-12-05T07:42:00.718Z,11.00
2022-12-05T07:44:28.607Z,10.95
2022-12-05T07:46:56.520Z,10.73
2022-12-05T07:49:24.387Z,11.45
2022-12-05T07:51:52.968Z,10.57
2022-12-05T07:54:20.782Z,10.95
2022-12-05T07:56:49.978Z,10.95
2022-12-05T07:59:17.844Z,11.55
2022-12-05T08:01:45.821Z,10.55
2022-12-05T08:04:15.805Z,10.32
2022-12-05T08:06:43.967Z,10.43
2022-12-05T08:09:12.019Z,10.15
2022-12-05T08:11:39.933Z,10.70
2022-12-05T08:14:09.288Z,10.25
2022-12-05T08:16:37.389Z,10.30
2022-12-05T08:19:06.398Z,11.02
2022-12-05T08:21:34.621Z,10.35
2022-12-05T08:24:02.792Z,10.82
2022-12-05T08:26:31.534Z,10.43
2022-12-05T08:29:00.774Z,10.65
2022-12-05T08:31:31.255Z,10.07
2022-12-05T08:33:59.750Z,4.22
2022-12-05T08:36:28.673Z,3.65
2022-12-05T08:38:57.309Z,2.95
2022-12-05T08:41:28.581Z,4.10
2022-12-05T08:43:56.741Z,2.63
2022-12-05T08:46:24.694Z,3.17
2022-12-05T08:48:53.936Z,3.80
2022-12-05T08:51:21.953Z,2.78
2022-12-05T08:53:49.871Z,1.98
2022-12-05T08:56:22.039Z,3.97
2022-12-05T08:58:57.383Z,2.80
2022-12-05T09:01:32.117Z,3.13
2022-12-05T09:04:02.394Z,2.47
2022-12-05T09:06:30.751Z,2.60
2022-12-05T09:09:00.151Z,2.83
2022-12-05T09:11:29.041Z,2.67
2022-12-05T09:13:58.604Z,3.97
2022-12-05T09:16:35.095Z,3.00
2022-12-05T09:19:06.209Z,2.60
2022-12-05T09:21:34.118Z,1.65
2022-12-05T09:24:02.503Z,2.45
2022-12-05T09:26:31.184Z,3.00
2022-12-05T09:28:59.153Z,2.42
2022-12-05T09:31:28.236Z,2.60
2022-12-05T09:33:56.318Z,2.33
2022-12-05T09:36:26.452Z,2.53
2022-12-05T09:38:55.559Z,3.97
2022-12-05T09:41:45.154Z,1.77
2022-12-05T09:44:16.341Z,2.38
2022-12-05T09:46:51.092Z,3.60
2022-12-05T09:49:19.142Z,4.40
2022-12-05T09:51:55.097Z,2.25
2022-12-05T09:54:24.497Z,1.98
2022-12-05T09:56:53.541Z,1.73
2022-12-05T09:59:21.883Z,2.45
2022-12-05T10:01:54.656Z,2.58
2022-12-05T10:04:52.450Z,2.97
2022-12-05T10:07:29.771Z,2.20
2022-12-05T10:10:03.913Z,3.17
2022-12-05T10:12:44.272Z,2.83
2022-12-05T10:15:14.082Z,2.97
2022-12-05T10:17:44.359Z,2.72
2022-12-05T10:20:14.993Z,3.38
2022-12-05T10:22:46.230Z,2.67
2022-12-05T10:25:15.014Z,3.70
2022-12-05T10:27:45.181Z,2.03
2022-12-05T10:30:15.097Z,2.42
2022-12-05T10:32:48.280Z,2.97
2022-12-05T10:35:17.789Z,3.97
2022-12-05T10:37:49.085Z,3.42
2022-12-05T10:40:17.513Z,4.65
2022-12-05T10:42:45.636Z,4.20
2022-12-05T10:45:18.057Z,4.10
2022-12-05T10:47:46.025Z,2.72
2022-12-05T10:50:31.793Z,2.97
2022-12-05T10:53:02.848Z,3.35
2022-12-05T10:55:32.455Z,1.80
2022-12-05T10:58:16.852Z,2.65
2022-12-05T11:00:47.538Z,3.08
2022-12-05T11:03:29.738Z,3.80
2022-12-05T11:05:58.528Z,3.10
2022-12-05T11:08:56.099Z,3.13
2022-12-05T11:11:20.013Z,3.88
2022-12-05T11:13:52.753Z,3.17
2022-12-05T11:16:24.533Z,3.67
2022-12-05T11:18:53.281Z,3.65
2022-12-05T11:21:21.091Z,3.80
2022-12-05T11:23:50.445Z,3.35
2022-12-05T11:26:21.640Z,4.38
2022-12-05T11:28:49.494Z,4.65
2022-12-05T11:31:23.696Z,3.72
2022-12-05T11:34:02.341Z,3.33
2022-12-05T11:36:36.909Z,2.92
2022-12-05T11:39:06.249Z,3.53
2022-12-05T11:41:42.076Z,2.72
2022-12-05T11:44:17.739Z,1.88
2022-12-05T11:46:50.735Z,2.08
2022-12-05T11:49:32.872Z,2.70
2022-12-05T11:52:05.006Z,3.15
2022-12-05T11:55:06.586Z,2.22
2022-12-05T11:57:52.906Z,3.15
2022-12-05T12:00:26.838Z,2.85
2022-12-05T12:03:06.087Z,13.43
2022-12-05T12:05:38.874Z,2.58
2022-12-05T12:08:12.908Z,3.10
2022-12-05T12:10:45.063Z,2.83
2022-12-05T12:13:19.115Z,3.17
2022-12-05T12:15:53.379Z,2.85
2022-12-05T12:18:26.056Z,3.13
2022-12-05T12:21:01.281Z,4.43
2022-12-05T12:23:34.280Z,3.90
2022-12-05T12:26:08.037Z,4.00
2022-12-05T12:28:40.303Z,3.42
2022-12-05T12:31:16.133Z,3.47
2022-12-05T12:33:47.814Z,4.05
2022-12-05T12:36:19.304Z,3.38
2022-12-05T12:38:52.531Z,3.10
2022-12-05T12:41:31.884Z,3.80
2022-12-05T12:44:05.842Z,3.13
2022-12-05T12:46:42.924Z,4.43
2022-12-05T12:49:17.296Z,3.70
2022-12-05T12:51:49.550Z,3.75
2022-12-05T12:54:40.439Z,4.25
2022-12-05T12:57:19.349Z,4.13
2022-12-05T12:59:55.091Z,3.83
2022-12-05T13:02:26.732Z,3.50
2022-12-05T13:04:56.399Z,4.00
2022-12-05T13:07:27.849Z,4.05
2022-12-05T13:09:58.993Z,4.63
2022-12-05T13:12:28.612Z,4.25
2022-12-05T13:15:00.384Z,3.63
2022-12-05T13:17:30.574Z,4.85
2022-12-05T13:19:58.693Z,3.92
2022-12-05T13:22:28.283Z,4.43
2022-12-05T13:24:56.933Z,4.13
2022-12-05T13:27:27.257Z,4.55
2022-12-05T13:29:57.086Z,4.10
2022-12-05T13:32:27.902Z,3.40
2022-12-05T13:34:57.509Z,3.58
2022-12-05T13:37:44.675Z,3.10
2022-12-05T13:40:46.642Z,3.85
2022-12-05T13:43:15.984Z,3.90
2022-12-05T13:45:44.901Z,4.25
2022-12-05T13:48:21.348Z,3.45
2022-12-05T13:50:54.994Z,3.47
2022-12-05T13:53:31.122Z,4.00
2022-12-05T13:56:00.695Z,4.50
2022-12-05T13:58:39.125Z,4.57
2022-12-05T14:01:26.090Z,3.70
2022-12-05T14:03:58.417Z,3.67
2022-12-05T14:06:41.120Z,3.78
2022-12-05T14:09:29.058Z,3.80
2022-12-05T14:12:12.297Z,3.25
2022-12-05T14:14:55.097Z,3.40
2022-12-05T14:17:24.240Z,3.50
2022-12-05T14:19:55.571Z,3.83
2022-12-05T14:22:31.387Z,2.97
2022-12-05T14:25:04.930Z,3.47
2022-12-05T14:27:42.687Z,3.63
2022-12-05T14:30:21.617Z,3.40
2022-12-05T14:32:50.394Z,4.40
2022-12-05T14:35:20.409Z,3.05
2022-12-05T14:37:53.137Z,3.28
2022-12-05T14:40:27.762Z,3.65
2022-12-05T14:42:57.064Z,4.05
2022-12-05T14:45:28.612Z,3.70
2022-12-05T14:47:57.607Z,3.88
2022-12-05T14:50:39.548Z,2.95
2022-12-05T14:53:26.202Z,3.53
2022-12-05T14:55:56.322Z,4.07
2022-12-05T14:58:32.489Z,3.50
2022-12-05T15:01:01.379Z,3.50
2022-12-05T15:03:31.538Z,3.03
2022-12-05T15:06:03.705Z,3.22
2022-12-05T15:08:34.494Z,3.60
2022-12-05T15:11:04.202Z,3.00
2022-12-05T15:13:32.983Z,2.97
2022-12-05T15:16:03.104Z,3.20
2022-12-05T15:18:32.553Z,3.42
2022-12-05T15:21:02.774Z,3.38
2022-12-05T15:23:40.674Z,3.50
2022-12-05T15:26:44.831Z,3.20
2022-12-05T15:29:06.614Z,3.75
2022-12-05T15:31:35.808Z,2.92
2022-12-05T15:34:06.697Z,2.33
2022-12-05T15:36:36.517Z,3.13
2022-12-05T15:39:05.803Z,2.45
2022-12-05T15:41:35.185Z,3.20
2022-12-05T15:44:06.203Z,3.20
2022-12-05T15:46:34.101Z,2.90
2022-12-05T15:49:16.661Z,3.70
2022-12-05T15:51:45.150Z,3.42
2022-12-05T15:54:15.627Z,3.17
2022-12-05T15:56:47.329Z,3.00
2022-12-05T15:59:19.291Z,3.20
2022-12-05T16:01:49.978Z,2.60
2022-12-05T16:04:22.593Z,3.10
2022-12-05T16:06:54.454Z,3.42
2022-12-05T16:09:22.990Z,3.03
2022-12-05T16:11:53.825Z,3.15
2022-12-05T16:14:51.377Z,3.30
2022-12-05T16:17:14.440Z,2.53
2022-12-05T16:19:42.354Z,3.00
2022-12-05T16:22:10.733Z,3.45
2022-12-05T16:24:41.769Z,2.92
2022-12-05T16:27:16.393Z,3.25
2022-12-05T16:29:45.199Z,3.35
2022-12-05T16:32:19.962Z,2.80
2022-12-05T16:34:47.772Z,3.25
2022-12-05T16:37:19.014Z,2.72
2022-12-05T16:39:47.189Z,2.70
2022-12-05T16:42:25.704Z,2.75
2022-12-05T16:45:03.766Z,2.88
2022-12-05T16:47:55.951Z,2.63
2022-12-05T16:50:25.854Z,2.75
2022-12-05T16:53:01.588Z,2.58
2022-12-05T16:55:33.108Z,3.10
2022-12-05T16:58:05.336Z,2.92
2022-12-05T17:00:33.447Z,2.60
2022-12-05T17:03:25.808Z,2.88
2022-12-05T17:05:49.051Z,2.60
2022-12-05T17:08:16.994Z,2.85
2022-12-05T17:10:45.129Z,3.35
2022-12-05T17:13:15.655Z,3.10
2022-12-05T17:15:43.663Z,2.60
2022-12-05T17:18:13.638Z,2.65
2022-12-05T17:20:42.478Z,2.80
2022-12-05T17:23:12.317Z,2.58
2022-12-05T17:25:40.873Z,2.42
2022-12-05T17:28:08.684Z,2.15
2022-12-05T17:30:38.084Z,2.53
2022-12-05T17:33:06.256Z,2.40
2022-12-05T17:35:34.178Z,2.38
2022-12-05T17:38:01.992Z,2.67
2022-12-05T17:40:29.855Z,3.83
2022-12-05T17:42:57.772Z,2.97
2022-12-05T17:45:25.958Z,2.85
2022-12-05T17:47:55.292Z,2.88
2022-12-05T17:50:23.872Z,2.92
2022-12-05T17:52:52.406Z,3.15
2022-12-05T17:55:21.651Z,2.67
2022-12-05T17:57:49.619Z,3.13
2022-12-05T18:00:18.868Z,3.05
2022-12-05T18:02:47.216Z,2.80
2022-12-05T18:05:17.413Z,3.10
2022-12-05T18:07:46.550Z,2.70
2022-12-05T18:10:15.552Z,2.70
2022-12-05T18:12:43.728Z,2.80
2022-12-05T18:15:12.051Z,2.60
2022-12-05T18:17:40.071Z,2.65
2022-12-05T18:20:10.496Z,2.67
2022-12-05T18:22:39.843Z,2.83
2022-12-05T18:25:08.581Z,3.33
2022-12-05T18:27:36.905Z,2.95
2022-12-05T18:30:05.538Z,2.92
2022-12-05T18:32:33.966Z,3.10
2022-12-05T18:35:04.135Z,2.80
2022-12-05T18:37:36.488Z,3.28
2022-12-05T18:40:06.013Z,3.08
2022-12-05T18:42:33.980Z,2.67
2022-12-05T18:45:02.304Z,2.60
2022-12-05T18:47:30.167Z,2.97
2022-12-05T18:49:58.135Z,2.80
2022-12-05T18:52:26.000Z,3.08
2022-12-05T18:55:09.221Z,2.70
2022-12-05T18:57:43.138Z,2.90
2022-12-05T19:00:11.921Z,2.75
2022-12-05T19:02:39.675Z,3.00
2022-12-05T19:05:07.858Z,2.38
2022-12-05T19:07:36.024Z,2.80
2022-12-05T19:10:03.944Z,2.88
2022-12-05T19:12:31.624Z,2.95
2022-12-05T19:15:01.154Z,2.58
2022-12-05T19:17:29.181Z,3.17
2022-12-05T19:19:58.629Z,2.95
2022-12-05T19:22:27.261Z,2.72
2022-12-05T19:24:55.095Z,3.08
2022-12-05T19:27:22.942Z,3.10
2022-12-05T19:29:50.755Z,3.50
2022-12-05T19:32:20.004Z,2.90
2022-12-05T19:34:49.713Z,3.22
2022-12-05T19:37:17.524Z,3.10
2022-12-05T19:39:45.594Z,3.28
2022-12-05T19:42:14.333Z,3.13
2022-12-05T19:44:42.144Z,3.10
2022-12-05T19:47:09.891Z,3.28
2022-12-05T19:49:39.053Z,3.00
2022-12-05T19:52:06.777Z,3.72
2022-12-05T19:54:34.628Z,2.88
2022-12-05T19:57:02.445Z,3.17
2022-12-05T19:59:30.203Z,3.47
2022-12-05T20:01:58.081Z,0.80
2022-12-05T20:04:25.889Z,0.68
2022-12-05T20:06:55.076Z,0.93
2022-12-05T20:09:23.409Z,0.60
2022-12-05T20:11:55.405Z,1.05
2022-12-05T20:14:24.479Z,0.68
2022-12-05T20:16:52.511Z,1.30
2022-12-05T20:19:20.502Z,0.82
2022-12-05T20:21:48.377Z,1.05
2022-12-05T20:24:17.668Z,1.60
2022-12-05T20:26:45.943Z,0.57
2022-12-05T20:29:14.060Z,0.95
2022-12-05T20:31:42.846Z,1.20
2022-12-05T20:34:11.790Z,1.10
2022-12-05T20:36:39.570Z,0.90
2022-12-05T20:39:08.342Z,0.70
2022-12-05T20:41:37.629Z,0.98
2022-12-05T20:44:06.464Z,0.95
2022-12-05T20:46:35.267Z,0.52
2022-12-05T20:49:03.331Z,0.50
2022-12-05T20:51:31.913Z,0.77
2022-12-05T20:54:00.709Z,0.70
2022-12-05T20:56:34.761Z,0.68
2022-12-05T20:59:05.455Z,0.93
2022-12-05T21:01:34.058Z,1.50
2022-12-05T21:04:02.425Z,0.70
2022-12-05T21:06:31.295Z,1.00
2022-12-05T21:08:59.621Z,2.33
2022-12-05T21:11:29.034Z,0.65
2022-12-05T21:13:57.603Z,1.17
2022-12-05T21:16:27.295Z,0.65
2022-12-05T21:18:56.128Z,0.93
2022-12-05T21:21:25.448Z,0.80
2022-12-05T21:23:54.232Z,1.52
2022-12-05T21:26:22.201Z,0.85
2022-12-05T21:28:50.270Z,0.50
2022-12-05T21:31:18.875Z,1.10
2022-12-05T21:33:49.742Z,0.45
2022-12-05T21:36:18.217Z,1.13
2022-12-05T21:38:50.699Z,0.52
2022-12-05T21:41:22.040Z,0.77
2022-12-05T21:43:54.346Z,0.82
2022-12-05T21:46:23.029Z,0.70
2022-12-05T21:48:52.444Z,0.73
2022-12-05T21:51:20.763Z,0.60
2022-12-05T21:53:48.627Z,0.90
2022-12-05T21:56:17.682Z,0.75
2022-12-05T21:58:46.090Z,0.80
2022-12-05T22:01:17.430Z,0.77
2022-12-05T22:03:45.522Z,0.70
2022-12-05T22:06:15.689Z,0.75
2022-12-05T22:08:44.067Z,0.40
2022-12-05T22:11:13.059Z,0.70
2022-12-05T22:13:41.081Z,0.45
2022-12-05T22:16:09.400Z,0.90
2022-12-05T22:18:37.630Z,0.88
2022-12-05T22:21:06.418Z,0.82
2022-12-05T22:23:36.037Z,0.80
2022-12-05T22:26:05.318Z,1.05
2022-12-05T22:28:34.155Z,0.90
2022-12-05T22:31:02.902Z,1.00
2022-12-05T22:33:31.648Z,1.10
2022-12-05T22:36:00.725Z,0.88
2022-12-05T22:38:29.253Z,2.10
2022-12-05T22:40:59.215Z,0.80
2022-12-05T22:43:30.000Z,0.50
2022-12-05T22:45:57.757Z,0.52
2022-12-05T22:48:25.618Z,0.73
2022-12-05T22:50:55.020Z,0.50
2022-12-05T22:53:24.076Z,1.10
2022-12-05T22:55:52.295Z,0.98
2022-12-05T22:58:21.696Z,0.75
2022-12-05T23:00:49.561Z,0.73
2022-12-05T23:03:17.522Z,0.52
2022-12-05T23:05:45.393Z,0.65
2022-12-05T23:08:13.598Z,0.57
2022-12-05T23:10:41.636Z,0.47
2022-12-05T23:13:09.809Z,0.90
2022-12-05T23:15:39.618Z,0.60
2022-12-05T23:18:08.053Z,0.43
2022-12-05T23:20:35.986Z,0.63
2022-12-05T23:23:04.035Z,0.80
2022-12-05T23:25:31.952Z,0.80
2022-12-05T23:27:59.968Z,0.60
2022-12-05T23:30:27.938Z,0.70
2022-12-05T23:32:57.235Z,0.47
2022-12-05T23:35:25.203Z,0.90
2022-12-05T23:37:54.042Z,0.63
2022-12-05T23:40:21.889Z,0.70
2022-12-05T23:42:49.821Z,0.45
2022-12-05T23:45:17.890Z,0.52
2022-12-05T23:47:45.757Z,0.98
2022-12-05T23:50:15.210Z,0.93
2022-12-05T23:52:43.007Z,0.50
2022-12-05T23:55:11.095Z,0.75
2022-12-05T23:57:38.979Z,0.60
